Map Display - LIPR to EGLL
(last flight recorded 16-09-2021, 19:32 - Dale Moore)

Aircraft Weights    Units : Maximums
Passengers :    
Cargo : kg 0 kg
Suggested Fuel Load : kg ? kg
 
     
 
Dry Operating : 0 kg    
Total Payload : 0 kg 0 kg
 
Take Off : 6,134 kg 0 kg
 
Expected Landing : 1,925 kg ? kg

Dale Moore,  DC6 ,  G-APOM,  .

Route Distance Previous
Flights
Average
Duration
Average
Fuel Flow
Average
Fuel Use
LIPR - Rimini Mil, Italy
EGLL - Heathrow, London
691 nm 1 03:30 1,203 kg/h 4,209 kg

Current weather :-
2021/09/16 18:22
TAF LIPR 161700Z 1618/1718 15010KT 9999 FEW070
BECMG 1621/1623 VRB06KT
TEMPO 1700/1706 RA
2021/09/16 18:09
TAF EGLL 161658Z 1618/1724 22005KT 9999 FEW030 PROB30 1701/1708 8000 BKN010
BECMG 1712/1715 16010KT
BECMG 1721/1724 10005KT

Back to Virtual Airline